sensor_id;sensor_type;location;lat;lon;timestamp;pressure;altitude;pressure_sealevel;temperature
64488;BMP280;50864;45.050;39.014;2022-12-07T00:01:05;101954.59;;;-0.41
64488;BMP280;50864;45.050;39.014;2022-12-07T00:03:31;101952.13;;;-0.42
64488;BMP280;50864;45.050;39.014;2022-12-07T00:05:58;101954.09;;;-0.44
64488;BMP280;50864;45.050;39.014;2022-12-07T00:08:24;101956.91;;;-0.46
64488;BMP280;50864;45.050;39.014;2022-12-07T00:10:51;101960.69;;;-0.48
64488;BMP280;50864;45.050;39.014;2022-12-07T00:13:16;101958.06;;;-0.48
64488;BMP280;50864;45.050;39.014;2022-12-07T00:15:42;101953.78;;;-0.49
64488;BMP280;50864;45.050;39.014;2022-12-07T00:18:09;101952.81;;;-0.48
64488;BMP280;50864;45.050;39.014;2022-12-07T00:20:35;101950.00;;;-0.47
64488;BMP280;50864;45.050;39.014;2022-12-07T00:23:00;101945.41;;;-0.45
64488;BMP280;50864;45.050;39.014;2022-12-07T00:25:27;101942.94;;;-0.46
64488;BMP280;50864;45.050;39.014;2022-12-07T00:27:53;101942.75;;;-0.45
64488;BMP280;50864;45.050;39.014;2022-12-07T00:30:22;101935.69;;;-0.44
64488;BMP280;50864;45.050;39.014;2022-12-07T00:32:49;101933.22;;;-0.46
64488;BMP280;50864;45.050;39.014;2022-12-07T00:35:15;101940.12;;;-0.45
64488;BMP280;50864;45.050;39.014;2022-12-07T00:37:41;101932.06;;;-0.43
64488;BMP280;50864;45.050;39.014;2022-12-07T00:40:08;101951.13;;;-0.41
64488;BMP280;50864;45.050;39.014;2022-12-07T00:42:34;101949.00;;;-0.46
64488;BMP280;50864;45.050;39.014;2022-12-07T00:45:02;101940.66;;;-0.49
64488;BMP280;50864;45.050;39.014;2022-12-07T00:47:29;101937.19;;;-0.50
64488;BMP280;50864;45.050;39.014;2022-12-07T00:49:54;101936.22;;;-0.49
64488;BMP280;50864;45.050;39.014;2022-12-07T00:52:20;101927.66;;;-0.51
64488;BMP280;50864;45.050;39.014;2022-12-07T00:54:46;101918.44;;;-0.47
64488;BMP280;50864;45.050;39.014;2022-12-07T00:57:12;101914.00;;;-0.46
64488;BMP280;50864;45.050;39.014;2022-12-07T00:59:38;101917.47;;;-0.46
64488;BMP280;50864;45.050;39.014;2022-12-07T01:02:04;101917.97;;;-0.50
64488;BMP280;50864;45.050;39.014;2022-12-07T01:04:33;101917.16;;;-0.51
64488;BMP280;50864;45.050;39.014;2022-12-07T01:06:59;101913.25;;;-0.55
64488;BMP280;50864;45.050;39.014;2022-12-07T01:09:25;101915.41;;;-0.58
64488;BMP280;50864;45.050;39.014;2022-12-07T01:11:51;101923.12;;;-0.57
64488;BMP280;50864;45.050;39.014;2022-12-07T01:14:17;101928.06;;;-0.62
64488;BMP280;50864;45.050;39.014;2022-12-07T01:16:43;101928.63;;;-0.66
64488;BMP280;50864;45.050;39.014;2022-12-07T01:19:09;101924.69;;;-0.71
64488;BMP280;50864;45.050;39.014;2022-12-07T01:21:35;101917.78;;;-0.72
64488;BMP280;50864;45.050;39.014;2022-12-07T01:24:06;101910.06;;;-0.73
64488;BMP280;50864;45.050;39.014;2022-12-07T01:26:32;101904.97;;;-0.75
64488;BMP280;50864;45.050;39.014;2022-12-07T01:28:58;101900.25;;;-0.79
64488;BMP280;50864;45.050;39.014;2022-12-07T01:31:27;101896.97;;;-0.81
64488;BMP280;50864;45.050;39.014;2022-12-07T01:33:55;101897.50;;;-0.86
64488;BMP280;50864;45.050;39.014;2022-12-07T01:36:24;101905.88;;;-0.90
64488;BMP280;50864;45.050;39.014;2022-12-07T01:38:53;101898.06;;;-0.98
64488;BMP280;50864;45.050;39.014;2022-12-07T01:41:23;101906.62;;;-1.04
64488;BMP280;50864;45.050;39.014;2022-12-07T01:46:43;101898.47;;;-1.18
64488;BMP280;50864;45.050;39.014;2022-12-07T01:49:14;101892.56;;;-1.20
64488;BMP280;50864;45.050;39.014;2022-12-07T01:51:42;101900.47;;;-1.20
64488;BMP280;50864;45.050;39.014;2022-12-07T01:54:10;101902.44;;;-1.22
64488;BMP280;50864;45.050;39.014;2022-12-07T01:56:38;101907.03;;;-1.24
64488;BMP280;50864;45.050;39.014;2022-12-07T01:59:04;101915.91;;;-1.25
64488;BMP280;50864;45.050;39.014;2022-12-07T02:01:31;101925.09;;;-1.29
64488;BMP280;50864;45.050;39.014;2022-12-07T02:03:57;101918.56;;;-1.33
64488;BMP280;50864;45.050;39.014;2022-12-07T02:06:25;101905.44;;;-1.33
64488;BMP280;50864;45.050;39.014;2022-12-07T02:08:52;101912.50;;;-1.33
64488;BMP280;50864;45.050;39.014;2022-12-07T02:11:18;101901.31;;;-1.35
64488;BMP280;50864;45.050;39.014;2022-12-07T02:13:45;101904.59;;;-1.33
64488;BMP280;50864;45.050;39.014;2022-12-07T02:16:54;101902.28;;;-1.28
64488;BMP280;50864;45.050;39.014;2022-12-07T02:24:47;101910.50;;;-1.39
64488;BMP280;50864;45.050;39.014;2022-12-07T02:30:12;101903.97;;;-1.44
64488;BMP280;50864;45.050;39.014;2022-12-07T02:35:40;101915.44;;;-1.45
64488;BMP280;50864;45.050;39.014;2022-12-07T02:40:38;101912.34;;;-1.48
64488;BMP280;50864;45.050;39.014;2022-12-07T02:43:17;101912.50;;;-1.50
64488;BMP280;50864;45.050;39.014;2022-12-07T02:45:46;101922.00;;;-1.49
64488;BMP280;50864;45.050;39.014;2022-12-07T02:48:16;101914.13;;;-1.49
64488;BMP280;50864;45.050;39.014;2022-12-07T02:50:49;101908.06;;;-1.49
64488;BMP280;50864;45.050;39.014;2022-12-07T02:53:35;101919.88;;;-1.53
64488;BMP280;50864;45.050;39.014;2022-12-07T02:56:50;101921.84;;;-1.55
64488;BMP280;50864;45.050;39.014;2022-12-07T03:08:01;101908.91;;;-1.65
64488;BMP280;50864;45.050;39.014;2022-12-07T03:10:54;101915.50;;;-1.69
64488;BMP280;50864;45.050;39.014;2022-12-07T03:13:37;101906.62;;;-1.68
64488;BMP280;50864;45.050;39.014;2022-12-07T03:18:52;101917.63;;;-1.72
64488;BMP280;50864;45.050;39.014;2022-12-07T03:21:23;101910.75;;;-1.73
64488;BMP280;50864;45.050;39.014;2022-12-07T03:23:55;101913.38;;;-1.73
64488;BMP280;50864;45.050;39.014;2022-12-07T03:26:25;101912.72;;;-1.75
64488;BMP280;50864;45.050;39.014;2022-12-07T03:28:55;101910.25;;;-1.77
64488;BMP280;50864;45.050;39.014;2022-12-07T03:31:36;101907.63;;;-1.77
64488;BMP280;50864;45.050;39.014;2022-12-07T03:34:18;101905.81;;;-1.77
64488;BMP280;50864;45.050;39.014;2022-12-07T03:36:48;101919.59;;;-1.74
64488;BMP280;50864;45.050;39.014;2022-12-07T03:41:54;101910.41;;;-1.79
64488;BMP280;50864;45.050;39.014;2022-12-07T03:44:20;101924.53;;;-1.80
64488;BMP280;50864;45.050;39.014;2022-12-07T03:47:02;101912.38;;;-1.81
64488;BMP280;50864;45.050;39.014;2022-12-07T03:54:39;101904.50;;;-1.81
64488;BMP280;50864;45.050;39.014;2022-12-07T03:57:07;101908.63;;;-1.78
64488;BMP280;50864;45.050;39.014;2022-12-07T03:59:34;101916.97;;;-1.74
64488;BMP280;50864;45.050;39.014;2022-12-07T04:02:03;101916.97;;;-1.74
64488;BMP280;50864;45.050;39.014;2022-12-07T04:04:29;101914.34;;;-1.74
64488;BMP280;50864;45.050;39.014;2022-12-07T04:06:55;101907.31;;;-1.74
64488;BMP280;50864;45.050;39.014;2022-12-07T04:09:22;101912.72;;;-1.75
64488;BMP280;50864;45.050;39.014;2022-12-07T04:11:48;101902.06;;;-1.74
64488;BMP280;50864;45.050;39.014;2022-12-07T04:14:14;101908.44;;;-1.77
64488;BMP280;50864;45.050;39.014;2022-12-07T04:16:56;101905.16;;;-1.79
64488;BMP280;50864;45.050;39.014;2022-12-07T04:19:26;101912.72;;;-1.75
64488;BMP280;50864;45.050;39.014;2022-12-07T04:21:54;101918.94;;;-1.77
64488;BMP280;50864;45.050;39.014;2022-12-07T04:24:20;101920.59;;;-1.75
64488;BMP280;50864;45.050;39.014;2022-12-07T04:26:47;101921.72;;;-1.78
64488;BMP280;50864;45.050;39.014;2022-12-07T04:29:14;101915.66;;;-1.79
64488;BMP280;50864;45.050;39.014;2022-12-07T04:31:40;101921.41;;;-1.75
64488;BMP280;50864;45.050;39.014;2022-12-07T04:34:07;101914.34;;;-1.74
64488;BMP280;50864;45.050;39.014;2022-12-07T04:36:33;101924.38;;;-1.70
64488;BMP280;50864;45.050;39.014;2022-12-07T04:39:00;101923.19;;;-1.67
64488;BMP280;50864;45.050;39.014;2022-12-07T04:41:26;101918.75;;;-1.67
64488;BMP280;50864;45.050;39.014;2022-12-07T04:43:56;101912.69;;;-1.67
64488;BMP280;50864;45.050;39.014;2022-12-07T04:46:24;101914.31;;;-1.66
64488;BMP280;50864;45.050;39.014;2022-12-07T04:48:51;101913.69;;;-1.60
64488;BMP280;50864;45.050;39.014;2022-12-07T04:51:36;101910.38;;;-1.54
64488;BMP280;50864;45.050;39.014;2022-12-07T04:54:03;101921.53;;;-1.52
64488;BMP280;50864;45.050;39.014;2022-12-07T04:56:29;101916.59;;;-1.55
64488;BMP280;50864;45.050;39.014;2022-12-07T04:58:55;101912.81;;;-1.53
64488;BMP280;50864;45.050;39.014;2022-12-07T05:01:22;101912.34;;;-1.48
64488;BMP280;50864;45.050;39.014;2022-12-07T05:03:48;101919.88;;;-1.45
64488;BMP280;50864;45.050;39.014;2022-12-07T05:06:14;101912.66;;;-1.43
64488;BMP280;50864;45.050;39.014;2022-12-07T05:08:41;101914.09;;;-1.41
64488;BMP280;50864;45.050;39.014;2022-12-07T05:11:09;101920.66;;;-1.36
64488;BMP280;50864;45.050;39.014;2022-12-07T05:13:56;101914.75;;;-1.38
64488;BMP280;50864;45.050;39.014;2022-12-07T05:16:21;101921.81;;;-1.39
64488;BMP280;50864;45.050;39.014;2022-12-07T05:18:47;101930.19;;;-1.35
64488;BMP280;50864;45.050;39.014;2022-12-07T05:21:14;101922.81;;;-1.32
64488;BMP280;50864;45.050;39.014;2022-12-07T05:23:40;101923.66;;;-1.31
64488;BMP280;50864;45.050;39.014;2022-12-07T05:26:05;101917.03;;;-1.27
64488;BMP280;50864;45.050;39.014;2022-12-07T05:28:32;101910.63;;;-1.25
64488;BMP280;50864;45.050;39.014;2022-12-07T05:30:57;101915.72;;;-1.23
64488;BMP280;50864;45.050;39.014;2022-12-07T05:33:23;101913.59;;;-1.20
64488;BMP280;50864;45.050;39.014;2022-12-07T05:35:49;101914.25;;;-1.18
64488;BMP280;50864;45.050;39.014;2022-12-07T05:38:15;101920.78;;;-1.14
64488;BMP280;50864;45.050;39.014;2022-12-07T05:40:42;101904.69;;;-1.11
64488;BMP280;50864;45.050;39.014;2022-12-07T05:43:10;101913.53;;;-1.12
64488;BMP280;50864;45.050;39.014;2022-12-07T05:45:36;101917.97;;;-1.12
64488;BMP280;50864;45.050;39.014;2022-12-07T05:48:01;101917.16;;;-1.13
64488;BMP280;50864;45.050;39.014;2022-12-07T05:50:28;101920.44;;;-1.11
64488;BMP280;50864;45.050;39.014;2022-12-07T05:52:59;101915.66;;;-1.07
64488;BMP280;50864;45.050;39.014;2022-12-07T05:55:25;101923.38;;;-1.05
64488;BMP280;50864;45.050;39.014;2022-12-07T05:57:51;101926.28;;;-1.00
64488;BMP280;50864;45.050;39.014;2022-12-07T06:00:36;101923.16;;;-0.96
64488;BMP280;50864;45.050;39.014;2022-12-07T06:03:02;101929.53;;;-0.90
64488;BMP280;50864;45.050;39.014;2022-12-07T06:05:28;101914.78;;;-0.91
64488;BMP280;50864;45.050;39.014;2022-12-07T06:07:54;101917.69;;;-0.86
64488;BMP280;50864;45.050;39.014;2022-12-07T06:10:20;101917.87;;;-0.88
64488;BMP280;50864;45.050;39.014;2022-12-07T06:12:46;101911.94;;;-0.90
64488;BMP280;50864;45.050;39.014;2022-12-07T06:15:12;101920.31;;;-0.86
64488;BMP280;50864;45.050;39.014;2022-12-07T06:17:39;101928.84;;;-0.84
64488;BMP280;50864;45.050;39.014;2022-12-07T06:20:05;101931.97;;;-0.81
64488;BMP280;50864;45.050;39.014;2022-12-07T06:22:32;101930.81;;;-0.78
64488;BMP280;50864;45.050;39.014;2022-12-07T06:24:58;101937.69;;;-0.77
64488;BMP280;50864;45.050;39.014;2022-12-07T06:27:24;101935.37;;;-0.72
64488;BMP280;50864;45.050;39.014;2022-12-07T06:29:50;101934.38;;;-0.71
64488;BMP280;50864;45.050;39.014;2022-12-07T06:32:16;101944.72;;;-0.69
64488;BMP280;50864;45.050;39.014;2022-12-07T06:34:42;101943.72;;;-0.68
64488;BMP280;50864;45.050;39.014;2022-12-07T06:37:08;101933.69;;;-0.65
64488;BMP280;50864;45.050;39.014;2022-12-07T06:39:35;101931.25;;;-0.66
64488;BMP280;50864;45.050;39.014;2022-12-07T06:42:01;101932.34;;;-0.61
64488;BMP280;50864;45.050;39.014;2022-12-07T06:44:27;101923.47;;;-0.60
64488;BMP280;50864;45.050;39.014;2022-12-07T06:46:55;101923.12;;;-0.57
64488;BMP280;50864;45.050;39.014;2022-12-07T06:49:21;101926.56;;;-0.56
64488;BMP280;50864;45.050;39.014;2022-12-07T06:51:47;101941.34;;;-0.55
64488;BMP280;50864;45.050;39.014;2022-12-07T06:54:14;101957.12;;;-0.55
64488;BMP280;50864;45.050;39.014;2022-12-07T06:56:41;101960.41;;;-0.53
64488;BMP280;50864;45.050;39.014;2022-12-07T06:59:07;101955.59;;;-0.50
64488;BMP280;50864;45.050;39.014;2022-12-07T07:01:34;101946.38;;;-0.46
64488;BMP280;50864;45.050;39.014;2022-12-07T07:04:01;101939.78;;;-0.42
64488;BMP280;50864;45.050;39.014;2022-12-07T07:06:27;101933.38;;;-0.39
64488;BMP280;50864;45.050;39.014;2022-12-07T07:08:53;101927.09;;;-0.38
64488;BMP280;50864;45.050;39.014;2022-12-07T07:11:19;101943.53;;;-0.36
64488;BMP280;50864;45.050;39.014;2022-12-07T07:13:45;101951.41;;;-0.36
64488;BMP280;50864;45.050;39.014;2022-12-07T07:16:12;101936.09;;;-0.32
64488;BMP280;50864;45.050;39.014;2022-12-07T07:18:37;101929.53;;;-0.28
64488;BMP280;50864;45.050;39.014;2022-12-07T07:21:04;101918.84;;;-0.27
64488;BMP280;50864;45.050;39.014;2022-12-07T07:23:30;101922.31;;;-0.26
64488;BMP280;50864;45.050;39.014;2022-12-07T07:25:56;101907.13;;;-0.24
64488;BMP280;50864;45.050;39.014;2022-12-07T07:28:23;101902.84;;;-0.25
64488;BMP280;50864;45.050;39.014;2022-12-07T07:30:49;101892.16;;;-0.24
64488;BMP280;50864;45.050;39.014;2022-12-07T07:33:15;101878.50;;;-0.19
64488;BMP280;50864;45.050;39.014;2022-12-07T07:35:41;101881.78;;;-0.17
64488;BMP280;50864;45.050;39.014;2022-12-07T07:38:08;101883.06;;;-0.13
64488;BMP280;50864;45.050;39.014;2022-12-07T07:40:34;101899.13;;;-0.08
64488;BMP280;50864;45.050;39.014;2022-12-07T07:43:00;101910.28;;;-0.06
64488;BMP280;50864;45.050;39.014;2022-12-07T07:45:27;101894.50;;;-0.06
64488;BMP280;50864;45.050;39.014;2022-12-07T07:47:53;101888.59;;;-0.08
64488;BMP280;50864;45.050;39.014;2022-12-07T07:50:20;101887.25;;;-0.04
64488;BMP280;50864;45.050;39.014;2022-12-07T07:52:47;101890.97;;;0.02
64488;BMP280;50864;45.050;39.014;2022-12-07T07:55:13;101899.84;;;0.00
64488;BMP280;50864;45.050;39.014;2022-12-07T07:57:40;101905.31;;;-0.01
64488;BMP280;50864;45.050;39.014;2022-12-07T08:00:12;101910.59;;;-0.01
64488;BMP280;50864;45.050;39.014;2022-12-07T08:02:39;101905.09;;;0.00
64488;BMP280;50864;45.050;39.014;2022-12-07T08:05:05;101897.69;;;0.04
64488;BMP280;50864;45.050;39.014;2022-12-07T08:07:32;101898.63;;;0.11
64488;BMP280;50864;45.050;39.014;2022-12-07T08:09:58;101875.03;;;0.18
64488;BMP280;50864;45.050;39.014;2022-12-07T08:12:24;101881.81;;;0.27
64488;BMP280;50864;45.050;39.014;2022-12-07T08:14:49;101879.66;;;0.30
64488;BMP280;50864;45.050;39.014;2022-12-07T08:17:16;101874.66;;;0.35
64488;BMP280;50864;45.050;39.014;2022-12-07T08:19:41;101877.53;;;0.41
64488;BMP280;50864;45.050;39.014;2022-12-07T08:22:07;101882.62;;;0.42
64488;BMP280;50864;45.050;39.014;2022-12-07T08:24:34;101883.81;;;0.40
64488;BMP280;50864;45.050;39.014;2022-12-07T08:27:00;101879.16;;;0.42
64488;BMP280;50864;45.050;39.014;2022-12-07T08:29:26;101869.09;;;0.45
64488;BMP280;50864;45.050;39.014;2022-12-07T08:31:52;101858.84;;;0.50
64488;BMP280;50864;45.050;39.014;2022-12-07T08:34:19;101853.66;;;0.57
64488;BMP280;50864;45.050;39.014;2022-12-07T08:36:44;101857.00;;;0.65
64488;BMP280;50864;45.050;39.014;2022-12-07T08:39:11;101862.25;;;0.80
64488;BMP280;50864;45.050;39.014;2022-12-07T08:41:37;101850.22;;;0.92
64488;BMP280;50864;45.050;39.014;2022-12-07T08:44:03;101854.91;;;1.12
64488;BMP280;50864;45.050;39.014;2022-12-07T08:46:36;101851.16;;;1.21
64488;BMP280;50864;45.050;39.014;2022-12-07T08:49:20;101855.69;;;1.27
64488;BMP280;50864;45.050;39.014;2022-12-07T08:51:49;101863.25;;;1.36
64488;BMP280;50864;45.050;39.014;2022-12-07T08:54:16;101856.66;;;1.47
64488;BMP280;50864;45.050;39.014;2022-12-07T08:56:44;101849.25;;;1.57
64488;BMP280;50864;45.050;39.014;2022-12-07T08:59:13;101848.31;;;1.65
64488;BMP280;50864;45.050;39.014;2022-12-07T09:01:39;101840.34;;;1.86
64488;BMP280;50864;45.050;39.014;2022-12-07T09:04:05;101845.50;;;2.01
64488;BMP280;50864;45.050;39.014;2022-12-07T09:06:32;101847.34;;;2.41
64488;BMP280;50864;45.050;39.014;2022-12-07T09:09:00;101840.19;;;2.89
64488;BMP280;50864;45.050;39.014;2022-12-07T09:11:27;101849.56;;;3.25
64488;BMP280;50864;45.050;39.014;2022-12-07T09:13:53;101841.88;;;3.50
64488;BMP280;50864;45.050;39.014;2022-12-07T09:16:19;101830.47;;;3.69
64488;BMP280;50864;45.050;39.014;2022-12-07T09:18:45;101837.19;;;3.72
64488;BMP280;50864;45.050;39.014;2022-12-07T09:21:11;101841.44;;;3.86
64488;BMP280;50864;45.050;39.014;2022-12-07T09:23:37;101832.22;;;3.95
64488;BMP280;50864;45.050;39.014;2022-12-07T09:26:03;101838.38;;;3.89
64488;BMP280;50864;45.050;39.014;2022-12-07T09:28:31;101832.47;;;3.74
64488;BMP280;50864;45.050;39.014;2022-12-07T09:30:57;101828.84;;;3.55
64488;BMP280;50864;45.050;39.014;2022-12-07T09:33:22;101826.81;;;3.30
64488;BMP280;50864;45.050;39.014;2022-12-07T09:35:51;101829.69;;;3.22
64488;BMP280;50864;45.050;39.014;2022-12-07T09:38:18;101819.28;;;3.27
64488;BMP280;50864;45.050;39.014;2022-12-07T09:40:44;101819.09;;;3.36
64488;BMP280;50864;45.050;39.014;2022-12-07T09:43:19;101820.47;;;3.51
64488;BMP280;50864;45.050;39.014;2022-12-07T09:45:47;101816.78;;;3.79
64488;BMP280;50864;45.050;39.014;2022-12-07T09:48:34;101810.00;;;3.96
64488;BMP280;50864;45.050;39.014;2022-12-07T09:51:03;101816.59;;;3.87
64488;BMP280;50864;45.050;39.014;2022-12-07T09:53:38;101805.97;;;3.80
64488;BMP280;50864;45.050;39.014;2022-12-07T09:56:05;101801.53;;;3.74
64488;BMP280;50864;45.050;39.014;2022-12-07T09:58:32;101800.34;;;3.57
64488;BMP280;50864;45.050;39.014;2022-12-07T10:01:22;101797.47;;;3.52
64488;BMP280;50864;45.050;39.014;2022-12-07T10:03:50;101805.84;;;3.49
64488;BMP280;50864;45.050;39.014;2022-12-07T10:06:17;101789.97;;;3.42
64488;BMP280;50864;45.050;39.014;2022-12-07T10:08:43;101788.53;;;3.53
64488;BMP280;50864;45.050;39.014;2022-12-07T10:11:10;101776.50;;;3.63
64488;BMP280;50864;45.050;39.014;2022-12-07T10:13:45;101778.91;;;3.78
64488;BMP280;50864;45.050;39.014;2022-12-07T10:16:49;101776.88;;;3.87
64488;BMP280;50864;45.050;39.014;2022-12-07T10:19:28;101788.41;;;4.05
64488;BMP280;50864;45.050;39.014;2022-12-07T10:22:23;101783.44;;;4.16
64488;BMP280;50864;45.050;39.014;2022-12-07T10:24:49;101788.41;;;4.43
64488;BMP280;50864;45.050;39.014;2022-12-07T10:29:48;101794.44;;;4.64
64488;BMP280;50864;45.050;39.014;2022-12-07T10:34:44;101787.38;;;4.51
64488;BMP280;50864;45.050;39.014;2022-12-07T10:37:17;101790.44;;;4.48
64488;BMP280;50864;45.050;39.014;2022-12-07T10:39:51;101786.97;;;4.47
64488;BMP280;50864;45.050;39.014;2022-12-07T10:42:35;101793.34;;;4.40
64488;BMP280;50864;45.050;39.014;2022-12-07T10:45:17;101785.59;;;4.38
64488;BMP280;50864;45.050;39.014;2022-12-07T10:58:31;101780.78;;;4.60
64488;BMP280;50864;45.050;39.014;2022-12-07T11:01:50;101774.31;;;4.81
64488;BMP280;50864;45.050;39.014;2022-12-07T11:10:22;101764.38;;;5.01
64488;BMP280;50864;45.050;39.014;2022-12-07T11:16:01;101757.25;;;4.95
64488;BMP280;50864;45.050;39.014;2022-12-07T11:18:35;101756.94;;;4.85
64488;BMP280;50864;45.050;39.014;2022-12-07T11:23:53;101759.56;;;4.67
64488;BMP280;50864;45.050;39.014;2022-12-07T11:29:25;101766.91;;;4.58
64488;BMP280;50864;45.050;39.014;2022-12-07T11:37:18;101763.84;;;4.61
64488;BMP280;50864;45.050;39.014;2022-12-07T11:39:59;101776.09;;;4.62
64488;BMP280;50864;45.050;39.014;2022-12-07T11:42:30;101771.53;;;4.69
64488;BMP280;50864;45.050;39.014;2022-12-07T11:47:52;101767.56;;;4.85
64488;BMP280;50864;45.050;39.014;2022-12-07T12:03:56;101763.16;;;5.22
64488;BMP280;50864;45.050;39.014;2022-12-07T12:06:23;101766.50;;;5.36
64488;BMP280;50864;45.050;39.014;2022-12-07T12:09:06;101762.75;;;5.43
64488;BMP280;50864;45.050;39.014;2022-12-07T12:20:13;101765.81;;;5.58
64488;BMP280;50864;45.050;39.014;2022-12-07T12:22:45;101765.50;;;5.55
64488;BMP280;50864;45.050;39.014;2022-12-07T12:25:36;101769.19;;;5.54
64488;BMP280;50864;45.050;39.014;2022-12-07T12:28:03;101768.38;;;5.53
64488;BMP280;50864;45.050;39.014;2022-12-07T12:30:39;101775.53;;;5.53
64488;BMP280;50864;45.050;39.014;2022-12-07T12:33:29;101766.75;;;5.52
64488;BMP280;50864;45.050;39.014;2022-12-07T12:46:58;101763.09;;;5.29
64488;BMP280;50864;45.050;39.014;2022-12-07T12:55:13;101766.84;;;5.21
64488;BMP280;50864;45.050;39.014;2022-12-07T12:57:45;101761.09;;;5.06
64488;BMP280;50864;45.050;39.014;2022-12-07T13:00:18;101758.28;;;4.94
64488;BMP280;50864;45.050;39.014;2022-12-07T13:02:56;101750.62;;;4.86
64488;BMP280;50864;45.050;39.014;2022-12-07T13:05:31;101750.69;;;4.79
64488;BMP280;50864;45.050;39.014;2022-12-07T13:08:12;101753.75;;;4.76
64488;BMP280;50864;45.050;39.014;2022-12-07T13:10:41;101756.84;;;4.73
64488;BMP280;50864;45.050;39.014;2022-12-07T13:15:52;101756.09;;;4.66
64488;BMP280;50864;45.050;39.014;2022-12-07T13:20:58;101762.84;;;4.56
64488;BMP280;50864;45.050;39.014;2022-12-07T13:31:48;101760.72;;;4.39
64488;BMP280;50864;45.050;39.014;2022-12-07T13:34:39;101763.22;;;4.34
64488;BMP280;50864;45.050;39.014;2022-12-07T13:40:17;101763.47;;;4.20
64488;BMP280;50864;45.050;39.014;2022-12-07T13:42:44;101760.06;;;4.13
64488;BMP280;50864;45.050;39.014;2022-12-07T13:45:27;101764.56;;;4.05
64488;BMP280;50864;45.050;39.014;2022-12-07T13:50:41;101764.38;;;4.00
64488;BMP280;50864;45.050;39.014;2022-12-07T13:53:12;101760.09;;;3.99
64488;BMP280;50864;45.050;39.014;2022-12-07T13:55:44;101766.22;;;4.00
64488;BMP280;50864;45.050;39.014;2022-12-07T13:58:12;101761.72;;;4.00
64488;BMP280;50864;45.050;39.014;2022-12-07T14:00:39;101757.25;;;4.01
64488;BMP280;50864;45.050;39.014;2022-12-07T14:05:39;101761.72;;;4.00
64488;BMP280;50864;45.050;39.014;2022-12-07T14:08:22;101748.91;;;3.97
64488;BMP280;50864;45.050;39.014;2022-12-07T14:15:52;101751.13;;;4.00
64488;BMP280;50864;45.050;39.014;2022-12-07T14:18:38;101765.41;;;3.99
64488;BMP280;50864;45.050;39.014;2022-12-07T14:21:16;101757.81;;;4.03
64488;BMP280;50864;45.050;39.014;2022-12-07T14:23:45;101767.41;;;4.04
64488;BMP280;50864;45.050;39.014;2022-12-07T14:26:27;101766.59;;;4.03
64488;BMP280;50864;45.050;39.014;2022-12-07T14:29:20;101775.97;;;4.06
64488;BMP280;50864;45.050;39.014;2022-12-07T14:31:46;101770.06;;;4.11
64488;BMP280;50864;45.050;39.014;2022-12-07T14:34:13;101768.22;;;4.11
64488;BMP280;50864;45.050;39.014;2022-12-07T14:36:38;101766.19;;;4.13
64488;BMP280;50864;45.050;39.014;2022-12-07T14:39:04;101766.53;;;4.17
64488;BMP280;50864;45.050;39.014;2022-12-07T14:41:30;101765.28;;;4.19
64488;BMP280;50864;45.050;39.014;2022-12-07T14:44:16;101768.56;;;4.21
64488;BMP280;50864;45.050;39.014;2022-12-07T14:46:42;101766.31;;;4.25
64488;BMP280;50864;45.050;39.014;2022-12-07T14:49:08;101770.97;;;4.29
64488;BMP280;50864;45.050;39.014;2022-12-07T14:51:36;101772.37;;;4.32
64488;BMP280;50864;45.050;39.014;2022-12-07T14:54:04;101763.41;;;4.33
64488;BMP280;50864;45.050;39.014;2022-12-07T14:56:30;101770.56;;;4.32
64488;BMP280;50864;45.050;39.014;2022-12-07T14:58:56;101769.31;;;4.35
64488;BMP280;50864;45.050;39.014;2022-12-07T15:01:23;101778.91;;;4.36
64488;BMP280;50864;45.050;39.014;2022-12-07T15:03:49;101765.66;;;4.36
64488;BMP280;50864;45.050;39.014;2022-12-07T15:06:17;101769.13;;;4.36
64488;BMP280;50864;45.050;39.014;2022-12-07T15:08:44;101764.22;;;4.33
64488;BMP280;50864;45.050;39.014;2022-12-07T15:11:14;101769.53;;;4.33
64488;BMP280;50864;45.050;39.014;2022-12-07T15:13:40;101775.19;;;4.37
64488;BMP280;50864;45.050;39.014;2022-12-07T15:16:24;101772.78;;;4.35
64488;BMP280;50864;45.050;39.014;2022-12-07T15:18:50;101777.47;;;4.33
64488;BMP280;50864;45.050;39.014;2022-12-07T15:21:17;101773.59;;;4.36
64488;BMP280;50864;45.050;39.014;2022-12-07T15:23:43;101782.13;;;4.38
64488;BMP280;50864;45.050;39.014;2022-12-07T15:26:10;101781.12;;;4.39
64488;BMP280;50864;45.050;39.014;2022-12-07T15:28:36;101780.28;;;4.38
64488;BMP280;50864;45.050;39.014;2022-12-07T15:31:02;101787.03;;;4.41
64488;BMP280;50864;45.050;39.014;2022-12-07T15:33:28;101779.06;;;4.41
64488;BMP280;50864;45.050;39.014;2022-12-07T15:35:54;101785.16;;;4.41
64488;BMP280;50864;45.050;39.014;2022-12-07T15:38:20;101793.91;;;4.42
64488;BMP280;50864;45.050;39.014;2022-12-07T15:40:48;101784.75;;;4.44
64488;BMP280;50864;45.050;39.014;2022-12-07T15:43:14;101789.84;;;4.46
64488;BMP280;50864;45.050;39.014;2022-12-07T15:45:59;101796.37;;;4.43
64488;BMP280;50864;45.050;39.014;2022-12-07T15:48:25;101793.09;;;4.41
64488;BMP280;50864;45.050;39.014;2022-12-07T15:50:51;101797.38;;;4.42
64488;BMP280;50864;45.050;39.014;2022-12-07T15:53:18;101783.94;;;4.44
64488;BMP280;50864;45.050;39.014;2022-12-07T15:55:44;101793.72;;;4.43
64488;BMP280;50864;45.050;39.014;2022-12-07T15:58:10;101793.50;;;4.45
64488;BMP280;50864;45.050;39.014;2022-12-07T16:00:36;101791.69;;;4.45
64488;BMP280;50864;45.050;39.014;2022-12-07T16:03:03;101795.34;;;4.44
64488;BMP280;50864;45.050;39.014;2022-12-07T16:05:29;101791.88;;;4.44
64488;BMP280;50864;45.050;39.014;2022-12-07T16:07:55;101790.84;;;4.45
64488;BMP280;50864;45.050;39.014;2022-12-07T16:10:21;101790.84;;;4.45
64488;BMP280;50864;45.050;39.014;2022-12-07T16:12:47;101795.75;;;4.41
64488;BMP280;50864;45.050;39.014;2022-12-07T16:15:13;101798.84;;;4.38
64488;BMP280;50864;45.050;39.014;2022-12-07T16:17:39;101798.28;;;4.36
64488;BMP280;50864;45.050;39.014;2022-12-07T16:20:05;101791.75;;;4.32
64488;BMP280;50864;45.050;39.014;2022-12-07T16:22:31;101790.72;;;4.33